Time;durP1;ratioP1;P1;durP2;ratioP2;P2;SDS_P1;SDS_P2;PMS_P1;PMS_P2;Temp;Humidity;BMP_temperature;BMP_pressure;BME280_temperature;BME280_humidity;BME280_pressure;Samples;Min_cycle;Max_cycle;Signal;HPM_P1;HPM_P2
2023/04/25 00:01:39;;;;;;;5.10;4.40;;;;;;;12.24;64.10;99347.71;110607;1263;23599;-79
2023/04/25 00:04:12;;;;;;;7.00;4.00;;;;;;;12.22;63.57;99345.90;110303;1261;21982;-78
2023/04/25 00:06:46;;;;;;;5.30;3.50;;;;;;;12.20;63.40;99346.21;110858;1263;22196;-81
2023/04/25 00:09:20;;;;;;;7.50;3.90;;;;;;;12.15;63.28;99343.91;110632;1263;21975;-79
2023/04/25 00:11:50;;;;;;;7.00;3.40;;;;;;;12.13;63.22;99348.01;110540;1263;22019;-78
2023/04/25 00:14:20;;;;;;;6.10;3.90;;;;;;;12.12;62.95;99349.30;110479;1263;21997;-81
2023/04/25 00:16:53;;;;;;;4.00;3.30;;;;;;;12.10;62.70;99347.16;110528;1263;22256;-79
2023/04/25 00:19:33;;;;;;;4.90;3.00;;;;;;;12.06;62.37;99348.23;109703;1268;22683;-80
2023/04/25 00:22:15;;;;;;;4.00;2.90;;;;;;;12.00;62.12;99349.36;109975;1268;24281;-79
2023/04/25 00:24:45;;;;;;;4.30;3.10;;;;;;;11.91;62.10;99350.74;109698;1269;21986;-80
2023/04/25 00:27:15;;;;;;;6.30;3.60;;;;;;;11.89;61.94;99351.89;109436;1270;21989;-79
2023/04/25 00:29:45;;;;;;;6.00;3.70;;;;;;;11.86;61.89;99349.95;109646;1269;21940;-79
2023/04/25 00:32:16;;;;;;;5.10;3.40;;;;;;;11.80;61.82;99344.88;110059;1270;21919;-78
2023/04/25 00:34:49;;;;;;;6.80;4.20;;;;;;;11.76;61.66;99345.66;109636;1270;21812;-79
2023/04/25 00:37:19;;;;;;;4.90;3.50;;;;;;;11.70;61.58;99347.23;109544;1270;22107;-77
2023/04/25 00:39:50;;;;;;;3.80;3.40;;;;;;;11.66;61.60;99349.88;109159;1275;23699;-80
2023/04/25 00:42:29;;;;;;;9.50;4.00;;;;;;;11.63;61.63;99353.55;109234;1269;23029;-81
2023/04/25 00:45:00;;;;;;;4.60;3.90;;;;;;;11.61;61.43;99357.50;109334;1276;22995;-80
2023/04/25 00:47:31;;;;;;;5.10;3.30;;;;;;;11.62;61.30;99360.61;109214;1276;21977;-79
2023/04/25 00:50:08;;;;;;;5.60;3.20;;;;;;;11.61;61.28;99365.15;108670;1282;22051;-80
2023/04/25 00:52:41;;;;;;;4.20;3.00;;;;;;;11.58;61.25;99359.77;108620;1286;22139;-79
2023/04/25 00:55:12;;;;;;;3.90;2.80;;;;;;;11.51;61.18;99362.26;108265;1290;21992;-79
2023/04/25 00:57:48;;;;;;;4.80;3.50;;;;;;;11.48;61.38;99362.25;108549;1286;22024;-78
2023/04/25 01:00:30;;;;;;;7.60;4.30;;;;;;;11.44;61.33;99359.52;108575;1286;22499;-78
2023/04/25 01:03:03;;;;;;;5.50;4.70;;;;;;;11.42;61.36;99361.57;108507;1286;21994;-80
2023/04/25 01:05:35;;;;;;;;;;;;;;;11.41;61.51;99359.70;108323;1286;21970;-79
2023/04/25 01:08:05;;;;;;;7.90;3.90;;;;;;;11.31;61.69;99357.30;108583;1281;22057;-79
2023/04/25 01:10:40;;;;;;;4.90;3.70;;;;;;;11.28;61.71;99356.94;109267;1270;21978;-78
2023/04/25 01:13:12;;;;;;;5.50;3.40;;;;;;;11.24;61.71;99360.45;109925;1269;21979;-77
2023/04/25 01:15:46;;;;;;;4.80;2.30;;;;;;;11.16;61.52;99360.38;109815;1270;22873;-80
2023/04/25 01:18:16;;;;;;;3.00;2.20;;;;;;;11.08;61.58;99363.77;110063;1269;23198;-77
2023/04/25 01:20:50;;;;;;;2.90;2.30;;;;;;;11.01;61.49;99365.26;110353;1264;23001;-79
2023/04/25 01:23:23;;;;;;;3.40;2.00;;;;;;;10.91;61.25;99362.48;110517;1252;23037;-80
2023/04/25 01:25:54;;;;;;;3.30;1.90;;;;;;;10.84;61.04;99367.02;110611;1264;23034;-80
2023/04/25 01:28:31;;;;;;;3.80;2.50;;;;;;;10.77;60.76;99365.53;110702;1264;23602;-79
2023/04/25 01:31:02;;;;;;;5.00;2.00;;;;;;;10.69;60.67;99366.60;110739;1264;23026;-78
2023/04/25 01:33:34;;;;;;;2.80;1.80;;;;;;;10.67;60.50;99367.25;109636;1271;22760;-79
2023/04/25 01:36:05;;;;;;;3.80;2.00;;;;;;;10.64;60.27;99367.58;109148;1278;24334;-78
2023/04/25 01:38:50;;;;;;;;;;;;;;;;;;;;;
2023/04/25 01:41:23;;;;;;;3.90;2.50;;;;;;;10.58;60.17;99370.00;109229;1278;23644;-79
2023/04/25 01:43:56;;;;;;;4.30;3.00;;;;;;;10.58;60.11;99372.96;108629;1283;21998;-79
2023/04/25 01:46:26;;;;;;;4.30;2.20;;;;;;;10.57;60.06;99375.25;108543;1284;22893;-79
2023/04/25 01:48:56;;;;;;;2.90;1.90;;;;;;;10.53;59.98;99374.95;108655;1284;21999;-79
2023/04/25 01:51:26;;;;;;;5.70;2.00;;;;;;;10.48;59.84;99375.41;108653;1284;22591;-79
2023/04/25 01:54:01;;;;;;;3.50;1.50;;;;;;;10.43;59.96;99373.25;108631;1284;22009;-79
2023/04/25 01:56:33;;;;;;;2.10;1.70;;;;;;;10.39;60.10;99375.20;108512;1284;23749;-77
2023/04/25 01:59:04;;;;;;;2.90;1.90;;;;;;;10.38;60.17;99374.02;109006;1276;24297;-79
2023/04/25 02:01:37;;;;;;;4.90;2.10;;;;;;;10.37;60.23;99372.15;109030;1276;21980;-79
2023/04/25 02:04:27;;;;;;;5.40;4.10;;;;;;;10.35;60.25;99371.90;109036;1276;21982;-79
2023/04/25 02:06:57;;;;;;;5.20;4.10;;;;;;;10.34;60.17;99373.00;109069;1276;21986;-78
2023/04/25 02:09:39;;;;;;;4.80;3.60;;;;;;;10.30;60.15;99379.44;109507;1271;21979;-79
2023/04/25 02:12:12;;;;;;;4.10;3.40;;;;;;;10.28;60.28;99380.80;109460;1265;21988;-79
2023/04/25 02:15:12;;;;;;;2.60;1.90;;;;;;;10.24;60.43;99382.71;109544;1264;22298;-79
2023/04/25 02:17:49;;;;;;;4.00;2.40;;;;;;;10.21;60.50;99388.05;109418;1275;23037;-78
2023/04/25 02:20:27;;;;;;;4.60;2.30;;;;;;;10.19;60.47;99381.92;109385;1276;21982;-80
2023/04/25 02:23:03;;;;;;;2.50;2.00;;;;;;;10.14;60.65;99383.75;109159;1276;22377;-80
2023/04/25 02:25:33;;;;;;;7.90;2.70;;;;;;;10.11;60.89;99385.46;109437;1263;21969;-79
2023/04/25 02:28:04;;;;;;;6.80;2.20;;;;;;;10.09;60.90;99386.43;109964;1268;23045;-79
2023/04/25 02:30:35;;;;;;;3.90;2.80;;;;;;;10.05;60.79;99387.70;109926;1263;22008;-78
2023/04/25 02:33:09;;;;;;;4.40;2.40;;;;;;;9.99;60.94;99388.34;109936;1268;22042;-78
2023/04/25 02:35:40;;;;;;;3.80;2.50;;;;;;;9.94;60.97;99388.92;109497;1268;21986;-78
2023/04/25 02:38:10;;;;;;;3.10;2.50;;;;;;;9.90;61.06;99388.43;109547;1268;22184;-79
2023/04/25 02:40:44;;;;;;;6.20;2.30;;;;;;;9.86;61.16;99392.60;110024;1268;24379;-79
2023/04/25 02:43:15;;;;;;;3.60;2.90;;;;;;;9.80;61.20;99395.90;109600;1268;23021;-79
2023/04/25 02:45:57;;;;;;;5.60;3.30;;;;;;;9.74;61.24;99399.13;109964;1268;23062;-79
2023/04/25 02:48:34;;;;;;;4.20;3.00;;;;;;;9.72;61.46;99400.27;110078;1268;22835;-78
2023/04/25 02:51:09;;;;;;;3.80;2.90;;;;;;;9.72;61.57;99402.73;109100;1276;22132;-79
2023/04/25 02:53:42;;;;;;;4.00;2.60;;;;;;;9.73;61.54;99397.95;109022;1276;21989;-78
2023/04/25 02:56:15;;;;;;;4.80;2.70;;;;;;;9.74;61.56;99401.20;109133;1276;22486;-79
2023/04/25 02:58:49;;;;;;;4.40;2.90;;;;;;;9.72;61.54;99399.20;109236;1276;22020;-80
2023/04/25 03:01:19;;;;;;;3.30;2.70;;;;;;;9.73;61.46;99398.66;109151;1276;21991;-78
2023/04/25 03:03:50;;;;;;;4.60;3.00;;;;;;;9.71;61.36;99396.85;109185;1274;22183;-79
2023/04/25 03:06:21;;;;;;;3.60;2.80;;;;;;;9.68;61.54;99391.95;108769;1281;22794;-78
2023/04/25 03:08:51;;;;;;;4.60;3.20;;;;;;;9.63;61.28;99384.39;108897;1274;22106;-79
2023/04/25 03:11:21;;;;;;;5.10;3.80;;;;;;;9.59;61.43;99381.27;109360;1268;21979;-79
2023/04/25 03:13:56;;;;;;;5.80;4.10;;;;;;;9.58;61.42;99383.77;109879;1268;21969;-79
2023/04/25 03:16:29;;;;;;;7.70;4.30;;;;;;;9.55;61.38;99384.25;109812;1268;22001;-79
2023/04/25 03:19:06;;;;;;;7.20;4.30;;;;;;;9.54;61.49;99387.95;109680;1265;21959;-81
2023/04/25 03:21:37;;;;;;;4.40;3.60;;;;;;;9.56;61.55;99392.36;110101;1268;22964;-79
2023/04/25 03:24:10;;;;;;;4.00;3.60;;;;;;;9.58;61.43;99390.88;110271;1263;23126;-79
2023/04/25 03:26:47;;;;;;;4.40;3.40;;;;;;;9.59;61.52;99389.10;110193;1270;23710;-79
2023/04/25 03:29:25;;;;;;;7.70;3.60;;;;;;;9.57;61.46;99389.02;109635;1270;22479;-81
2023/04/25 03:31:59;;;;;;;3.70;3.20;;;;;;;9.56;61.31;99388.56;109666;1270;23014;-77
2023/04/25 03:34:39;;;;;;;10.30;6.40;;;;;;;9.52;61.37;99386.15;109781;1270;22037;-79
2023/04/25 03:37:26;;;;;;;23.20;20.90;;;;;;;9.50;61.26;99390.23;109905;1269;23796;-81
2023/04/25 03:39:59;;;;;;;7.50;5.10;;;;;;;9.48;61.43;99386.48;109986;1270;22953;-79
2023/04/25 03:42:52;;;;;;;4.90;4.40;;;;;;;9.45;61.42;99383.91;109943;1269;23233;-79
2023/04/25 03:45:23;;;;;;;4.90;3.90;;;;;;;9.47;61.46;99392.67;110030;1264;23035;-77
2023/04/25 03:48:07;;;;;;;4.40;4.00;;;;;;;9.44;61.41;99395.02;110515;1263;21990;-81
2023/04/25 03:50:39;;;;;;;5.30;4.40;;;;;;;9.42;61.48;99395.13;109900;1262;22617;-78
2023/04/25 03:53:11;;;;;;;8.30;4.20;;;;;;;9.41;61.39;99397.30;109916;1268;23423;-78
2023/04/25 03:56:22;;;;;;;6.00;4.20;;;;;;;9.35;61.46;99397.73;109171;1274;23717;-77
2023/04/25 03:58:58;;;;;;;4.90;4.00;;;;;;;9.36;61.51;99400.12;109392;1274;22751;-77
2023/04/25 04:01:29;;;;;;;6.00;4.40;;;;;;;9.38;61.61;99402.61;109443;1274;21992;-80
2023/04/25 04:04:02;;;;;;;6.60;4.40;;;;;;;9.35;61.67;99402.59;109342;1274;22045;-78
2023/04/25 04:06:39;;;;;;;;;;;;;;;9.36;61.85;99408.97;109505;1272;23041;-79
2023/04/25 04:09:15;;;;;;;8.50;5.20;;;;;;;9.33;62.13;99409.95;109813;1269;21968;-80
2023/04/25 04:11:49;;;;;;;7.80;4.90;;;;;;;9.40;62.10;99412.25;109564;1270;21986;-79
2023/04/25 04:14:25;;;;;;;7.60;4.90;;;;;;;9.48;62.07;99412.04;109653;1269;23765;-80
2023/04/25 04:17:03;;;;;;;6.80;4.20;;;;;;;9.59;62.13;99412.19;109606;1274;21995;-80
2023/04/25 04:19:35;;;;;;;28.20;15.60;;;;;;;9.70;61.97;99415.33;109251;1268;23119;-79
2023/04/25 04:22:10;;;;;;;7.20;5.30;;;;;;;9.80;61.86;99416.73;109511;1268;21971;-78
2023/04/25 04:24:46;;;;;;;7.10;5.00;;;;;;;9.88;61.65;99420.14;110066;1268;21981;-78
2023/04/25 04:27:23;;;;;;;5.30;4.50;;;;;;;9.94;61.31;99420.18;110129;1266;21995;-80
2023/04/25 04:29:57;;;;;;;5.10;4.30;;;;;;;9.99;61.09;99420.98;109986;1268;22117;-80
2023/04/25 04:32:38;;;;;;;7.30;4.90;;;;;;;10.02;60.96;99423.13;109762;1268;21993;-78
2023/04/25 04:35:08;;;;;;;5.00;4.00;;;;;;;10.04;60.79;99423.03;109920;1263;22364;-79
2023/04/25 04:37:46;;;;;;;5.60;4.80;;;;;;;10.08;60.66;99424.21;110696;1263;21983;-80
2023/04/25 04:40:21;;;;;;;6.90;5.00;;;;;;;10.10;60.55;99423.04;109773;1265;22739;-79
2023/04/25 04:43:01;;;;;;;9.70;6.20;;;;;;;10.19;60.69;99426.80;110089;1268;22048;-80
2023/04/25 04:46:00;;;;;;;12.20;6.90;;;;;;;10.24;60.57;99428.10;110052;1268;21995;-79
2023/04/25 04:48:42;;;;;;;9.20;6.00;;;;;;;10.34;60.52;99430.39;109378;1268;23619;-81
2023/04/25 04:51:31;;;;;;;7.20;5.10;;;;;;;10.45;60.49;99429.45;109590;1274;21999;-80
2023/04/25 04:54:23;;;;;;;;;;;;;;;10.50;60.11;99430.40;109179;1274;21994;-78
2023/04/25 04:57:15;;;;;;;10.70;6.70;;;;;;;10.47;60.25;99427.95;109565;1274;23603;-79
2023/04/25 05:00:11;;;;;;;7.60;6.60;;;;;;;10.54;60.30;99430.21;109555;1274;23705;-79
2023/04/25 05:02:47;;;;;;;9.40;5.70;;;;;;;10.65;60.02;99433.65;109243;1280;21989;-79
2023/04/25 05:05:56;;;;;;;6.40;4.60;;;;;;;10.71;59.75;99432.80;109109;1271;23001;-79
2023/04/25 05:08:41;;;;;;;6.80;5.10;;;;;;;10.78;59.68;99434.73;110000;1270;21951;-80
2023/04/25 05:11:19;;;;;;;7.40;3.90;;;;;;;10.88;59.66;99433.61;109890;1271;21977;-80
2023/04/25 05:14:13;;;;;;;8.00;4.10;;;;;;;11.02;59.53;99431.86;109584;1270;21972;-80
2023/04/25 05:16:44;;;;;;;7.90;4.30;;;;;;;11.12;59.35;99432.34;109888;1270;22057;-83
2023/04/25 05:19:42;;;;;;;9.70;5.00;;;;;;;11.22;58.92;99432.48;109752;1271;21976;-80
2023/04/25 05:22:26;;;;;;;5.00;4.40;;;;;;;11.40;59.20;99433.94;110831;1263;22400;-80
2023/04/25 05:25:26;;;;;;;6.20;4.90;;;;;;;11.63;58.73;99428.98;110813;1263;22452;-80
2023/04/25 05:28:24;;;;;;;8.50;5.40;;;;;;;11.75;57.98;99428.52;110914;1264;23589;-80
2023/04/25 05:31:14;;;;;;;8.60;4.90;;;;;;;11.84;57.76;99430.59;110704;1264;22031;-80
2023/04/25 05:33:56;;;;;;;8.80;4.30;;;;;;;11.88;57.06;99430.35;109757;1271;21996;-78
2023/04/25 05:36:39;;;;;;;8.20;5.00;;;;;;;11.93;57.12;99428.19;109957;1268;23699;-80
2023/04/25 05:39:11;;;;;;;7.70;4.80;;;;;;;12.07;56.93;99428.25;105767;1271;5056414;-79
2023/04/25 05:42:14;;;;;;;8.20;4.70;;;;;;;12.09;56.17;99427.27;109252;1271;21988;-79
2023/04/25 05:45:02;;;;;;;6.40;4.70;;;;;;;12.15;56.32;99424.97;109054;1276;21980;-80
2023/04/25 05:47:57;;;;;;;6.00;5.40;;;;;;;12.32;56.40;99427.48;108976;1276;21991;-80
2023/04/25 05:50:51;;;;;;;9.90;5.40;;;;;;;12.35;55.35;99427.98;109120;1276;23637;-79
2023/04/25 05:53:47;;;;;;;6.50;5.90;;;;;;;12.26;54.99;99429.59;109718;1268;22045;-79
2023/04/25 05:56:20;;;;;;;6.20;4.50;;;;;;;12.19;54.86;99435.07;109832;1270;22128;-78
2023/04/25 05:58:56;;;;;;;9.10;5.50;;;;;;;12.25;55.31;99434.33;109965;1268;22747;-79
2023/04/25 06:01:29;;;;;;;8.40;5.70;;;;;;;12.35;55.22;99434.26;110072;1268;23064;-79
2023/04/25 06:04:00;;;;;;;6.60;4.40;;;;;;;12.51;55.54;99436.63;110120;1264;22742;-79
2023/04/25 06:06:31;;;;;;;7.90;5.70;;;;;;;12.71;55.22;99435.75;110109;1263;22738;-78
2023/04/25 06:09:08;;;;;;;7.30;5.80;;;;;;;13.01;55.31;99438.81;110500;1264;21978;-79
2023/04/25 06:11:38;;;;;;;7.30;5.00;;;;;;;13.30;54.40;99437.86;110549;1263;22012;-79
2023/04/25 06:14:09;;;;;;;6.20;4.70;;;;;;;13.37;53.42;99435.35;110764;1263;21965;-79
2023/04/25 06:16:42;;;;;;;6.60;5.20;;;;;;;13.37;52.85;99433.63;111017;1264;22004;-78
2023/04/25 06:19:21;;;;;;;7.40;6.20;;;;;;;13.43;53.06;99431.63;109595;1268;23035;-80
2023/04/25 06:21:51;;;;;;;9.20;5.20;;;;;;;13.56;52.86;99435.52;109988;1268;24338;-79
2023/04/25 06:24:22;;;;;;;7.20;5.00;;;;;;;13.70;52.68;99439.40;109826;1268;21973;-78
2023/04/25 06:26:54;;;;;;;4.90;4.50;;;;;;;13.83;52.19;99436.96;109863;1268;21978;-79
2023/04/25 06:29:26;;;;;;;7.00;4.40;;;;;;;13.94;51.97;99441.14;110038;1268;22346;-79
2023/04/25 06:31:57;;;;;;;5.90;4.20;;;;;;;14.09;51.58;99440.15;109705;1268;22200;-78
2023/04/25 06:34:30;;;;;;;9.60;5.20;;;;;;;14.28;51.79;99437.27;109905;1268;21984;-77
2023/04/25 06:37:04;;;;;;;7.80;6.10;;;;;;;14.46;51.02;99437.48;109806;1263;21979;-78
2023/04/25 06:39:34;;;;;;;5.30;4.80;;;;;;;14.60;50.45;99437.56;110527;1263;23050;-78
2023/04/25 06:42:09;;;;;;;8.80;4.60;;;;;;;14.70;49.99;99437.77;110645;1263;21985;-78
2023/04/25 06:44:48;;;;;;;8.80;7.60;;;;;;;14.87;49.72;99436.77;110895;1263;22027;-78
2023/04/25 06:47:19;;;;;;;9.50;7.50;;;;;;;15.15;49.93;99435.84;109898;1268;22020;-77
2023/04/25 06:49:51;;;;;;;4.70;4.20;;;;;;;15.38;48.73;99434.67;110115;1268;21975;-79
2023/04/25 06:52:22;;;;;;;7.60;4.00;;;;;;;15.39;47.85;99431.50;109544;1268;22049;-79
2023/04/25 06:54:56;;;;;;;4.20;3.70;;;;;;;15.24;47.21;99430.24;109643;1268;23032;-79
2023/04/25 06:57:36;;;;;;;7.10;4.50;;;;;;;15.11;47.62;99433.63;110273;1268;22989;-80
2023/04/25 07:00:28;;;;;;;7.70;3.90;;;;;;;15.26;48.25;99430.13;109916;1268;21950;-78
2023/04/25 07:02:58;;;;;;;5.70;4.10;;;;;;;15.51;47.61;99429.20;110120;1268;23099;-76
2023/04/25 07:05:29;;;;;;;5.50;3.90;;;;;;;15.69;47.30;99428.09;109786;1263;23803;-77
2023/04/25 07:08:02;;;;;;;5.90;3.90;;;;;;;15.92;46.94;99423.59;110447;1259;21597;-79
2023/04/25 07:10:33;;;;;;;7.90;3.60;;;;;;;15.84;45.74;99428.39;110255;1263;23047;-80
2023/04/25 07:13:04;;;;;;;7.30;4.00;;;;;;;15.64;45.71;99427.55;109515;1270;24392;-76
2023/04/25 07:15:37;;;;;;;5.50;3.50;;;;;;;15.56;46.08;99428.64;110059;1269;23763;-78
2023/04/25 07:18:07;;;;;;;4.40;3.40;;;;;;;15.51;45.77;99429.39;109695;1270;21982;-80
2023/04/25 07:20:41;;;;;;;5.70;4.30;;;;;;;15.46;46.16;99433.93;109762;1270;21958;-78
2023/04/25 07:23:15;;;;;;;8.30;3.60;;;;;;;15.67;46.49;99434.38;109639;1270;23740;-78
2023/04/25 07:25:49;;;;;;;13.30;4.00;;;;;;;15.99;46.35;99433.05;110080;1269;21984;-78
2023/04/25 07:28:23;;;;;;;4.50;3.50;;;;;;;16.42;45.88;99432.77;109772;1270;22980;-78
2023/04/25 07:30:53;;;;;;;8.30;3.70;;;;;;;16.65;43.89;99430.18;109968;1263;22259;-78
2023/04/25 07:33:24;;;;;;;4.40;2.80;;;;;;;16.44;42.51;99433.56;110377;1263;21976;-78
2023/04/25 07:35:58;;;;;;;8.20;3.00;;;;;;;16.27;43.43;99437.64;110573;1260;22162;-80
2023/04/25 07:38:38;;;;;;;6.00;3.20;;;;;;;16.35;43.53;99436.64;110884;1263;21978;-80
2023/04/25 07:41:08;;;;;;;4.40;3.30;;;;;;;16.18;42.85;99435.52;110505;1263;23761;-79
2023/04/25 07:43:39;;;;;;;4.50;3.30;;;;;;;16.15;43.44;99437.13;110574;1263;21957;-77
2023/04/25 07:46:13;;;;;;;4.40;3.20;;;;;;;16.30;43.22;99437.04;109958;1268;22245;-80
2023/04/25 07:48:45;;;;;;;6.10;3.50;;;;;;;16.49;42.87;99438.05;109906;1269;21991;-78
2023/04/25 07:51:16;;;;;;;5.20;3.10;;;;;;;16.69;42.40;99438.80;110192;1268;21976;-78
2023/04/25 07:53:46;;;;;;;5.50;3.60;;;;;;;16.77;41.77;99437.83;110098;1268;23254;-76
2023/04/25 07:56:19;;;;;;;6.20;2.90;;;;;;;16.55;40.98;99437.08;109486;1274;23802;-77
2023/04/25 07:58:51;;;;;;;5.60;3.80;;;;;;;16.28;41.51;99436.15;109261;1274;22983;-76
2023/04/25 08:01:23;;;;;;;7.40;3.40;;;;;;;16.23;41.91;99437.60;109266;1274;21989;-75
2023/04/25 08:03:57;;;;;;;4.40;2.80;;;;;;;16.16;41.91;99442.33;109366;1270;21948;-77
2023/04/25 08:06:54;;;;;;;6.90;3.30;;;;;;;16.00;41.75;99441.77;109852;1270;24294;-78
2023/04/25 08:09:28;;;;;;;5.40;2.90;;;;;;;15.68;41.57;99436.73;109654;1269;21980;-79
2023/04/25 08:12:17;;;;;;;5.40;3.60;;;;;;;15.45;42.25;99436.67;109673;1269;22424;-78
2023/04/25 08:14:48;;;;;;;8.10;3.80;;;;;;;15.44;42.96;99436.77;110222;1263;23003;-77
2023/04/25 08:17:18;;;;;;;8.30;3.70;;;;;;;15.49;43.09;99436.53;110667;1263;21964;-76
2023/04/25 08:19:49;;;;;;;5.30;3.30;;;;;;;15.44;42.79;99434.47;110793;1263;22892;-78
2023/04/25 08:22:30;;;;;;;5.90;3.30;;;;;;;15.36;42.98;99434.33;110721;1263;22238;-76
2023/04/25 08:25:23;;;;;;;4.10;2.70;;;;;;;15.33;43.02;99437.17;110478;1263;22049;-75
2023/04/25 08:28:02;;;;;;;6.00;2.40;;;;;;;15.43;42.78;99441.02;110728;1252;21992;-78
2023/04/25 08:30:40;;;;;;;5.50;2.50;;;;;;;15.57;42.72;99441.73;110142;1270;22018;-77
2023/04/25 08:33:20;;;;;;;3.70;2.40;;;;;;;15.74;42.33;99438.59;109929;1263;22985;-78
2023/04/25 08:36:22;;;;;;;5.40;3.10;;;;;;;15.58;41.62;99445.89;109602;1272;22229;-80
2023/04/25 08:39:27;;;;;;;;;;;;;;;15.27;41.89;99447.56;109928;1273;23044;-85
2023/04/25 08:42:19;;;;;;;5.30;2.80;;;;;;;15.27;42.96;99448.83;109774;1273;22059;-82
2023/04/25 08:44:53;;;;;;;4.20;2.70;;;;;;;15.59;43.10;99451.23;109528;1273;21995;-82
2023/04/25 08:47:37;;;;;;;7.00;2.80;;;;;;;15.69;41.92;99452.98;109420;1273;21953;-79
2023/04/25 08:50:09;;;;;;;5.70;2.80;;;;;;;15.60;41.64;99452.43;109832;1270;21972;-78
2023/04/25 08:52:49;;;;;;;4.30;2.80;;;;;;;15.43;41.71;99450.98;109494;1270;22043;-78
2023/04/25 08:55:22;;;;;;;5.30;2.60;;;;;;;15.31;42.44;99451.52;109823;1268;21972;-83
2023/04/25 08:58:36;;;;;;;4.40;2.10;;;;;;;15.37;42.45;99455.61;110406;1268;24350;-82
2023/04/25 09:01:33;;;;;;;4.80;2.30;;;;;;;15.03;41.66;99457.70;109960;1270;22904;-81
2023/04/25 09:04:25;;;;;;;7.80;2.60;;;;;;;14.81;41.93;99458.70;110065;1269;22820;-82
2023/04/25 09:07:12;;;;;;;3.70;2.10;;;;;;;14.75;42.47;99460.31;109875;1270;23722;-81
2023/04/25 09:10:06;;;;;;;9.90;3.60;;;;;;;14.76;42.48;99463.45;109866;1269;23698;-82
2023/04/25 09:13:31;;;;;;;6.10;2.20;;;;;;;14.78;42.54;99469.08;110415;1270;21986;-83
2023/04/25 09:16:52;;;;;;;4.20;1.80;;;;;;;14.73;42.29;99473.08;109532;1275;23734;-81
2023/04/25 09:19:50;;;;;;;3.70;1.90;;;;;;;14.78;41.78;99474.17;109817;1271;22100;-80
2023/04/25 09:22:30;;;;;;;4.00;2.20;;;;;;;14.89;41.81;99470.25;109451;1276;21992;-83
2023/04/25 09:25:16;;;;;;;5.00;1.90;;;;;;;14.96;41.26;99466.96;109373;1276;21993;-80
2023/04/25 09:27:53;;;;;;;4.40;1.90;;;;;;;14.99;41.06;99473.08;109469;1276;22044;-83
2023/04/25 09:30:37;;;;;;;6.50;2.00;;;;;;;15.01;41.01;99473.58;109420;1276;23752;-82
2023/04/25 09:33:37;;;;;;;4.70;2.30;;;;;;;15.02;40.61;99472.15;109489;1269;21999;-83
2023/04/25 09:36:17;;;;;;;5.20;2.40;;;;;;;14.98;40.21;99475.54;109911;1269;21993;-81
2023/04/25 09:39:15;;;;;;;5.90;2.30;;;;;;;14.85;40.07;99470.14;109882;1270;21986;-81
2023/04/25 09:42:05;;;;;;;3.10;2.10;;;;;;;14.71;40.46;99469.02;110671;1262;23688;-81
2023/04/25 09:44:47;;;;;;;5.20;2.60;;;;;;;14.69;41.04;99468.96;110608;1262;23018;-83
2023/04/25 09:47:24;;;;;;;6.30;3.30;;;;;;;14.86;41.04;99472.02;110605;1262;21947;-83
2023/04/25 09:50:30;;;;;;;6.00;3.00;;;;;;;14.87;40.46;99477.73;110420;1262;21968;-81
2023/04/25 09:53:22;;;;;;;6.30;2.60;;;;;;;14.82;40.29;99479.98;110895;1252;21964;-83
2023/04/25 09:56:30;;;;;;;4.80;3.00;;;;;;;14.74;40.51;99481.10;109996;1271;23057;-82
2023/04/25 09:59:52;;;;;;;3.40;2.30;;;;;;;14.71;40.75;99480.97;110023;1270;22007;-83
2023/04/25 10:02:48;;;;;;;3.80;2.20;;;;;;;14.89;41.27;99485.35;110091;1258;21983;-81
2023/04/25 10:06:10;;;;;;;5.10;2.00;;;;;;;15.07;40.57;99485.48;110094;1270;22499;-82
2023/04/25 10:08:56;;;;;;;6.20;2.40;;;;;;;15.11;39.92;99494.48;110327;1271;21985;-82
2023/04/25 10:11:52;;;;;;;3.70;2.50;;;;;;;14.91;39.59;99491.63;110124;1271;22000;-83
2023/04/25 10:14:25;;;;;;;6.20;2.50;;;;;;;14.76;39.96;99490.23;110397;1263;21973;-81
2023/04/25 10:17:00;;;;;;;5.90;2.40;;;;;;;14.62;39.93;99488.38;111308;1263;21980;-82
2023/04/25 10:19:51;;;;;;;5.10;2.40;;;;;;;14.49;39.99;99489.95;111536;1263;23037;-83
2023/04/25 10:22:56;;;;;;;3.30;1.90;;;;;;;14.38;40.26;99489.82;110933;1263;22982;-84
2023/04/25 10:25:33;;;;;;;4.30;2.60;;;;;;;14.37;40.21;99488.10;109876;1268;24442;-82
2023/04/25 10:28:35;;;;;;;5.00;2.40;;;;;;;14.23;39.79;99490.45;109994;1265;22450;-83
2023/04/25 10:31:30;;;;;;;5.60;2.20;;;;;;;14.15;39.99;99481.73;110375;1268;21989;-83
2023/04/25 10:34:01;;;;;;;3.30;1.90;;;;;;;14.16;40.17;99480.59;110020;1268;22006;-83
2023/04/25 10:37:08;;;;;;;;;;;;;;;;;;;;;
2023/04/25 10:39:55;;;;;;;7.30;2.80;;;;;;;14.24;39.86;99482.49;110690;1268;22945;-81
2023/04/25 10:42:31;;;;;;;3.80;2.10;;;;;;;14.19;39.67;99480.92;110325;1268;22002;-81
2023/04/25 10:45:46;;;;;;;6.30;2.90;;;;;;;14.06;39.63;99479.88;109991;1268;23788;-82
2023/04/25 10:48:44;;;;;;;4.70;2.60;;;;;;;13.89;39.99;99484.66;110353;1268;22011;-81
2023/04/25 10:51:34;;;;;;;3.50;2.50;;;;;;;13.82;40.38;99491.58;110729;1263;21990;-82
2023/04/25 10:54:25;;;;;;;4.50;2.70;;;;;;;13.65;40.40;99491.58;110823;1263;21970;-82
2023/04/25 10:57:01;;;;;;;9.30;5.90;;;;;;;13.58;40.99;99488.90;110663;1263;21940;-82
2023/04/25 10:59:35;;;;;;;7.40;5.60;;;;;;;13.65;41.13;99491.25;110746;1263;21987;-81
2023/04/25 11:02:28;;;;;;;7.60;4.60;;;;;;;13.64;41.09;99493.06;110901;1263;21966;-82
2023/04/25 11:05:41;;;;;;;3.60;3.30;;;;;;;13.71;41.48;99492.81;110695;1263;21983;-82
2023/04/25 11:08:49;;;;;;;5.10;3.30;;;;;;;13.85;41.48;99491.71;110858;1263;21992;-82
2023/04/25 11:11:22;;;;;;;6.40;3.80;;;;;;;13.95;41.06;99490.20;110731;1263;23106;-81
2023/04/25 11:13:52;;;;;;;3.70;3.30;;;;;;;14.02;41.03;99496.41;110826;1263;22715;-81
2023/04/25 11:16:26;;;;;;;3.80;2.60;;;;;;;14.10;40.76;99494.98;109871;1268;21935;-81
2023/04/25 11:19:36;;;;;;;5.80;3.80;;;;;;;14.07;40.31;99496.06;109998;1268;22312;-80
2023/04/25 11:22:15;;;;;;;7.30;3.60;;;;;;;14.01;40.39;99493.27;110198;1268;23585;-82
2023/04/25 11:25:11;;;;;;;6.10;3.40;;;;;;;13.98;40.52;99494.21;110445;1268;22381;-81
2023/04/25 11:28:02;;;;;;;5.10;3.10;;;;;;;13.89;40.57;99495.45;109892;1268;22752;-80
2023/04/25 11:30:36;;;;;;;4.00;2.80;;;;;;;13.90;40.80;99496.83;110258;1268;22008;-81
2023/04/25 11:33:15;;;;;;;8.20;4.90;;;;;;;13.91;40.71;99496.40;110344;1268;22078;-84
2023/04/25 11:35:56;;;;;;;4.70;3.40;;;;;;;13.92;40.67;99496.33;110126;1268;21985;-82
2023/04/25 11:38:27;;;;;;;4.30;3.10;;;;;;;13.84;40.48;99500.32;110050;1268;22075;-82
2023/04/25 11:41:17;;;;;;;;;;;;;;;13.80;40.43;99500.81;110016;1263;22033;-80
2023/04/25 11:43:54;;;;;;;6.80;3.80;;;;;;;13.62;40.75;99497.54;110733;1263;21976;-81
2023/04/25 11:46:30;;;;;;;5.80;3.20;;;;;;;13.59;41.00;99501.05;110583;1263;21969;-82
2023/04/25 11:49:12;;;;;;;;;;;;;;;13.62;41.18;99494.95;110625;1264;21957;-81
2023/04/25 11:52:02;;;;;;;7.10;3.90;;;;;;;13.59;41.30;99496.34;110396;1266;21999;-80
2023/04/25 11:54:53;;;;;;;9.40;4.60;;;;;;;13.69;41.41;99505.00;110548;1266;23834;-81
2023/04/25 11:57:31;;;;;;;7.20;5.50;;;;;;;13.73;41.11;99504.94;110449;1266;23594;-80
2023/04/25 12:00:23;;;;;;;4.80;4.00;;;;;;;13.73;40.98;99504.20;110421;1266;22041;-81
2023/04/25 12:02:58;;;;;;;4.60;3.30;;;;;;;13.68;41.10;99503.44;110394;1266;21979;-81
2023/04/25 12:05:33;;;;;;;4.60;2.90;;;;;;;13.62;41.09;99502.63;110086;1266;22166;-80
2023/04/25 12:08:19;;;;;;;4.30;2.70;;;;;;;13.44;41.01;99498.20;110205;1266;22058;-81
2023/04/25 12:10:56;;;;;;;5.00;2.30;;;;;;;13.28;41.34;99501.42;110368;1266;22478;-81
2023/04/25 12:14:12;;;;;;;10.40;3.00;;;;;;;13.12;41.79;99495.27;110516;1266;23253;-81
2023/04/25 12:16:58;;;;;;;5.50;2.60;;;;;;;13.11;42.00;99502.10;110061;1266;21961;-79
2023/04/25 12:19:43;;;;;;;4.60;3.90;;;;;;;13.06;42.20;99503.98;110102;1266;21961;-80
2023/04/25 12:22:24;;;;;;;10.00;6.50;;;;;;;13.05;42.13;99506.50;110042;1266;21945;-80
2023/04/25 12:24:58;;;;;;;9.30;8.30;;;;;;;12.98;42.37;99507.63;110084;1266;22006;-79
2023/04/25 12:27:32;;;;;;;9.60;6.30;;;;;;;12.95;42.28;99503.79;110304;1267;21990;-81
2023/04/25 12:30:18;;;;;;;7.60;5.90;;;;;;;12.92;42.51;99501.03;110346;1264;22008;-79